createdAt,value
2017-09-03T00:00:24.633Z,10.2
2017-09-03T00:01:26.829Z,10.2
2017-09-03T00:02:29.044Z,10.3
2017-09-03T00:03:31.517Z,10.4
2017-09-03T00:04:33.691Z,10.3
2017-09-03T00:05:36.516Z,10.3
2017-09-03T00:06:38.602Z,10.3
2017-09-03T00:07:40.705Z,10.2
2017-09-03T00:08:43.207Z,10.1
2017-09-03T00:09:45.298Z,10
2017-09-03T00:10:47.460Z,10.1
2017-09-03T00:11:49.830Z,10.1
2017-09-03T00:12:51.973Z,10.1
2017-09-03T00:13:54.383Z,10.1
2017-09-03T00:14:56.517Z,10.1
2017-09-03T00:15:58.716Z,10.1
2017-09-03T00:17:00.856Z,10
2017-09-03T00:18:03.110Z,10
2017-09-03T00:19:05.618Z,10
2017-09-03T00:20:07.680Z,10
2017-09-03T00:21:09.808Z,10.2
2017-09-03T00:22:11.930Z,10.2
2017-09-03T00:23:14.090Z,10.2
2017-09-03T00:24:16.540Z,10.3
2017-09-03T00:25:18.718Z,10.3
2017-09-03T00:26:20.863Z,10.2
2017-09-03T00:27:22.929Z,10.1
2017-09-03T00:28:25.028Z,10.1
2017-09-03T00:29:27.473Z,10.1
2017-09-03T00:30:29.597Z,10.1
2017-09-03T00:31:31.849Z,10.1
2017-09-03T00:32:34.018Z,10.1
2017-09-03T00:33:36.071Z,10.1
2017-09-03T00:34:38.554Z,10.2
2017-09-03T00:35:40.629Z,10.1
2017-09-03T00:36:42.735Z,9.9
2017-09-03T00:37:44.860Z,10
2017-09-03T00:38:47.045Z,10.1
2017-09-03T00:39:49.564Z,10.1
2017-09-03T00:40:51.658Z,10.1
2017-09-03T00:41:53.738Z,10
2017-09-03T00:42:55.908Z,10.1
2017-09-03T00:43:58.174Z,10.1
2017-09-03T00:45:00.587Z,10.1
2017-09-03T00:46:02.710Z,10.1
2017-09-03T00:47:04.936Z,9.8
2017-09-03T00:48:07.063Z,10
2017-09-03T00:49:09.209Z,9.9
2017-09-03T00:50:11.657Z,9.9
2017-09-03T00:51:13.772Z,10
2017-09-03T00:52:15.887Z,10.2
2017-09-03T00:53:18.023Z,10.1
2017-09-03T00:54:20.160Z,10.1
2017-09-03T00:55:22.609Z,10.2
2017-09-03T00:56:24.785Z,10.3
2017-09-03T00:57:26.939Z,10.2
2017-09-03T00:58:29.086Z,10.3
2017-09-03T00:59:31.215Z,10.3
2017-09-03T01:00:33.715Z,10.3
2017-09-03T01:01:36.161Z,10.2
2017-09-03T01:02:38.313Z,10.3
2017-09-03T01:03:40.441Z,10.2
2017-09-03T01:04:42.535Z,10.1
2017-09-03T01:05:44.978Z,10.1
2017-09-03T01:06:47.065Z,9.8
2017-09-03T01:07:49.238Z,9.3
2017-09-03T01:08:51.410Z,9.2
2017-09-03T01:09:53.513Z,9.4
2017-09-03T01:10:55.999Z,9.4
2017-09-03T01:11:58.149Z,9.6
2017-09-03T01:13:00.264Z,9.7
2017-09-03T01:14:02.398Z,9.8
2017-09-03T01:15:04.586Z,9.9
2017-09-03T01:16:07.014Z,9.9
2017-09-03T01:17:09.086Z,9.7
2017-09-03T01:18:11.187Z,9.5
2017-09-03T01:19:13.308Z,9.4
2017-09-03T01:20:15.492Z,9.5
2017-09-03T01:21:17.995Z,9.6
2017-09-03T01:22:20.132Z,9.6
2017-09-03T01:23:22.222Z,9.7
2017-09-03T01:24:24.326Z,9.7
2017-09-03T01:25:26.388Z,9.6
2017-09-03T01:26:28.884Z,9.6
2017-09-03T01:27:31.021Z,9.6
2017-09-03T01:28:33.111Z,9.6
2017-09-03T01:29:35.220Z,9.6
2017-09-03T01:30:37.524Z,9.6
2017-09-03T01:31:41.431Z,9.7
2017-09-03T01:32:43.601Z,9.9
2017-09-03T01:33:45.712Z,9.7
2017-09-03T01:34:47.834Z,9.8
2017-09-03T01:35:50.048Z,9.6
2017-09-03T01:36:52.573Z,9.6
2017-09-03T01:37:54.711Z,9.6
2017-09-03T01:38:56.904Z,9.6
2017-09-03T01:39:59.037Z,9.6
2017-09-03T01:41:01.120Z,9.5
2017-09-03T01:42:03.553Z,9.6
2017-09-03T01:43:05.664Z,9.6
2017-09-03T01:44:07.767Z,9.5
2017-09-03T01:45:09.966Z,9.5
2017-09-03T01:46:12.098Z,9.7
2017-09-03T01:47:14.462Z,9.8
2017-09-03T01:48:16.602Z,9.6
2017-09-03T01:49:18.772Z,9.6
2017-09-03T01:50:20.891Z,9.7
2017-09-03T01:51:23.027Z,9.8
2017-09-03T01:52:25.483Z,9.8
2017-09-03T01:53:27.606Z,9.8
2017-09-03T01:54:29.797Z,9.8
2017-09-03T01:55:31.915Z,9.6
2017-09-03T01:56:34.102Z,9.7
2017-09-03T01:57:37.131Z,9.7
2017-09-03T01:58:39.185Z,9.8
2017-09-03T01:59:41.314Z,9.8
2017-09-03T02:00:43.424Z,9.8
2017-09-03T02:01:45.577Z,9.5
2017-09-03T02:02:47.972Z,9.6
2017-09-03T02:03:50.006Z,9.6
2017-09-03T02:04:52.090Z,9.6
2017-09-03T02:05:54.200Z,9.7
2017-09-03T02:06:56.330Z,9.7
2017-09-03T02:07:58.951Z,9.7
2017-09-03T02:09:01.096Z,9.6
2017-09-03T02:10:03.156Z,9.4
2017-09-03T02:11:05.249Z,9.4
2017-09-03T02:12:07.272Z,9.5
2017-09-03T02:13:09.748Z,9.6
2017-09-03T02:14:11.823Z,9.5
2017-09-03T02:15:14.038Z,9.5
2017-09-03T02:16:16.117Z,9.5
2017-09-03T02:17:18.283Z,9.5
2017-09-03T02:18:20.619Z,9.5
2017-09-03T02:19:22.790Z,9.5
2017-09-03T02:20:24.867Z,9.4
2017-09-03T02:21:27.042Z,9.1
2017-09-03T02:22:29.214Z,9
2017-09-03T02:23:31.694Z,9
2017-09-03T02:24:33.822Z,9.1
2017-09-03T02:25:35.965Z,9.1
2017-09-03T02:26:38.152Z,9.1
2017-09-03T02:27:40.306Z,9.1
2017-09-03T02:28:42.715Z,9.2
2017-09-03T02:29:44.802Z,9.3
2017-09-03T02:30:46.908Z,9.3
2017-09-03T02:31:49.089Z,9.3
2017-09-03T02:32:51.254Z,9.3
2017-09-03T02:33:53.833Z,9.3
2017-09-03T02:34:55.925Z,9.4
2017-09-03T02:35:58.102Z,9.4
2017-09-03T02:37:00.229Z,9.5
2017-09-03T02:38:02.407Z,9.3
2017-09-03T02:39:04.938Z,9.4
2017-09-03T02:40:07.051Z,9.4
2017-09-03T02:41:09.185Z,9.3
2017-09-03T02:42:11.358Z,9.4
2017-09-03T02:43:13.441Z,9.4
2017-09-03T02:44:15.861Z,9.4
2017-09-03T02:45:17.976Z,9.3
2017-09-03T02:46:20.113Z,9.3
2017-09-03T02:47:22.240Z,9.3
2017-09-03T02:48:24.382Z,9.4
2017-09-03T02:49:26.860Z,9.4
2017-09-03T02:50:28.954Z,9.4
2017-09-03T02:51:31.124Z,9.3
2017-09-03T02:52:33.306Z,9.1
2017-09-03T02:53:35.441Z,9.2
2017-09-03T02:54:38.070Z,8.9
2017-09-03T02:55:40.222Z,9
2017-09-03T02:56:42.320Z,9
2017-09-03T02:57:44.440Z,9
2017-09-03T02:58:46.563Z,9
2017-09-03T02:59:49.080Z,8.9
2017-09-03T03:00:51.260Z,8.9
2017-09-03T03:01:53.360Z,8.9
2017-09-03T03:02:55.562Z,9.1
2017-09-03T03:03:57.676Z,9.1
2017-09-03T03:05:00.150Z,9.2
2017-09-03T03:06:02.303Z,9.1
2017-09-03T03:07:04.388Z,9.1
2017-09-03T03:08:06.503Z,9.1
2017-09-03T03:09:08.583Z,9.2
2017-09-03T03:10:10.994Z,9.1
2017-09-03T03:11:13.124Z,9
2017-09-03T03:12:15.272Z,9
2017-09-03T03:13:17.482Z,9
2017-09-03T03:14:19.615Z,9
2017-09-03T03:15:21.951Z,8.9
2017-09-03T03:16:24.052Z,9
2017-09-03T03:17:26.214Z,9
2017-09-03T03:18:28.302Z,9
2017-09-03T03:19:30.413Z,9.1
2017-09-03T03:20:32.951Z,8.9
2017-09-03T03:21:35.052Z,8.9
2017-09-03T03:22:37.173Z,8.7
2017-09-03T03:23:39.331Z,8.7
2017-09-03T03:24:41.516Z,8.7
2017-09-03T03:25:43.972Z,8.8
2017-09-03T03:26:46.045Z,8.7
2017-09-03T03:27:48.152Z,8.6
2017-09-03T03:28:50.291Z,8.7
2017-09-03T03:29:52.418Z,8.7
2017-09-03T03:30:54.873Z,8.5
2017-09-03T03:31:56.959Z,8.5
2017-09-03T03:32:59.153Z,8.4
2017-09-03T03:34:01.260Z,8.3
2017-09-03T03:35:03.310Z,8.3
2017-09-03T03:36:05.709Z,8.4
2017-09-03T03:37:07.869Z,8.6
2017-09-03T03:38:10.111Z,8.6
2017-09-03T03:39:12.226Z,8.7
2017-09-03T03:40:14.364Z,8.8
2017-09-03T03:41:16.898Z,8.9
2017-09-03T03:42:18.978Z,8.9
2017-09-03T03:43:21.080Z,9
2017-09-03T03:44:23.150Z,8.9
2017-09-03T03:45:25.271Z,8.8
2017-09-03T03:46:27.755Z,8.8
2017-09-03T03:47:29.836Z,8.8
2017-09-03T03:48:31.912Z,8.8
2017-09-03T03:49:34.008Z,8.7
2017-09-03T03:50:36.138Z,8.8
2017-09-03T03:51:38.550Z,8.8
2017-09-03T03:52:40.656Z,8.8
2017-09-03T03:53:42.747Z,8.8
2017-09-03T03:54:44.922Z,8.8
2017-09-03T03:55:47.000Z,8.9
2017-09-03T03:56:49.515Z,9
2017-09-03T03:57:51.690Z,9.1
2017-09-03T03:58:54.018Z,9
2017-09-03T03:59:56.173Z,9.1
2017-09-03T04:00:58.274Z,9
2017-09-03T04:02:00.765Z,9
2017-09-03T04:03:02.906Z,8.9
2017-09-03T04:04:05.027Z,8.8
2017-09-03T04:05:07.112Z,8.9
2017-09-03T04:06:09.329Z,8.8
2017-09-03T04:07:11.745Z,8.8
2017-09-03T04:08:13.903Z,8.7
2017-09-03T04:09:16.082Z,8.7
2017-09-03T04:10:18.226Z,8.6
2017-09-03T04:11:20.324Z,8.8
2017-09-03T04:12:22.786Z,8.8
2017-09-03T04:13:24.898Z,8.6
2017-09-03T04:14:26.992Z,8.4
2017-09-03T04:15:29.115Z,8.4
2017-09-03T04:16:31.232Z,8.4
2017-09-03T04:17:33.697Z,8.3
2017-09-03T04:18:35.825Z,8.5
2017-09-03T04:19:37.956Z,8.5
2017-09-03T04:20:40.192Z,8.4
2017-09-03T04:21:42.353Z,8.2
2017-09-03T04:22:44.808Z,8.2
2017-09-03T04:23:46.984Z,8.4
2017-09-03T04:24:49.207Z,8.3
2017-09-03T04:25:51.293Z,8.2
2017-09-03T04:26:53.669Z,8.2
2017-09-03T04:27:56.102Z,8.3
2017-09-03T04:28:58.186Z,8.3
2017-09-03T04:30:00.304Z,8.3
2017-09-03T04:31:02.421Z,8.1
2017-09-03T04:32:04.550Z,8.1
2017-09-03T04:33:07.064Z,8.2
2017-09-03T04:34:09.244Z,8.4
2017-09-03T04:35:11.400Z,8.6
2017-09-03T04:36:13.426Z,8.5
2017-09-03T04:37:15.484Z,8.5
2017-09-03T04:38:17.970Z,8.5
2017-09-03T04:39:20.092Z,8.5
2017-09-03T04:40:22.195Z,8.5
2017-09-03T04:41:24.305Z,8.5
2017-09-03T04:42:26.556Z,8.4
2017-09-03T04:43:28.992Z,8.5
2017-09-03T04:44:31.909Z,8.3
2017-09-03T04:45:34.096Z,8.2
2017-09-03T04:46:36.200Z,8.1
2017-09-03T04:47:38.321Z,8
2017-09-03T04:48:40.772Z,8
2017-09-03T04:49:42.905Z,8.2
2017-09-03T04:50:45.024Z,8.3
2017-09-03T04:51:47.148Z,8.4
2017-09-03T04:52:49.223Z,8.4
2017-09-03T04:53:51.816Z,8.4
2017-09-03T04:54:53.907Z,8.4
2017-09-03T04:55:56.170Z,8.3
2017-09-03T04:56:58.197Z,8.2
2017-09-03T04:58:00.246Z,8.1
2017-09-03T04:59:02.654Z,8.1
2017-09-03T05:00:04.783Z,8.3
2017-09-03T05:01:06.893Z,8.5
2017-09-03T05:02:09.018Z,8.5
2017-09-03T05:03:11.170Z,8.6
2017-09-03T05:04:13.729Z,8.6
2017-09-03T05:05:15.891Z,8.7
2017-09-03T05:06:18.075Z,8.7
2017-09-03T05:07:20.287Z,8.5
2017-09-03T05:08:22.431Z,8.5
2017-09-03T05:09:24.958Z,8.5
2017-09-03T05:10:27.065Z,8.5
2017-09-03T05:11:29.144Z,8.6
2017-09-03T05:12:31.284Z,8.6
2017-09-03T05:13:33.378Z,8.7
2017-09-03T05:14:35.954Z,8.4
2017-09-03T05:15:38.083Z,8.3
2017-09-03T05:16:40.253Z,8.2
2017-09-03T05:17:42.396Z,8.3
2017-09-03T05:18:44.522Z,8.5
2017-09-03T05:19:47.075Z,8.7
2017-09-03T05:20:49.262Z,8.7
2017-09-03T05:21:51.387Z,8.7
2017-09-03T05:22:53.506Z,8.7
2017-09-03T05:23:55.637Z,8.7
2017-09-03T05:24:58.111Z,8.7
2017-09-03T05:26:00.158Z,8.8
2017-09-03T05:27:02.258Z,8.8
2017-09-03T05:28:04.340Z,8.9
2017-09-03T05:29:06.417Z,8.9
2017-09-03T05:30:08.864Z,9.1
2017-09-03T05:31:10.930Z,9.3
2017-09-03T05:32:13.062Z,9.6
2017-09-03T05:33:15.197Z,9.8
2017-09-03T05:34:17.367Z,10.1
2017-09-03T05:35:19.989Z,10.4
2017-09-03T05:36:22.105Z,10.6
2017-09-03T05:37:24.249Z,10.7
2017-09-03T05:38:26.317Z,10.9
2017-09-03T05:39:28.509Z,11.1
2017-09-03T05:40:30.947Z,11
2017-09-03T05:41:32.993Z,10.9
2017-09-03T05:42:35.085Z,11
2017-09-03T05:43:37.256Z,11.2
2017-09-03T05:44:39.377Z,11.1
2017-09-03T05:45:41.838Z,11.1
2017-09-03T05:46:43.972Z,11.1
2017-09-03T05:47:46.178Z,11
2017-09-03T05:48:48.197Z,11.1
2017-09-03T05:49:50.597Z,11
2017-09-03T05:50:53.082Z,11.2
2017-09-03T05:51:55.251Z,10.9
2017-09-03T05:52:57.438Z,10.8
2017-09-03T05:53:59.527Z,11
2017-09-03T05:55:01.665Z,10.9
2017-09-03T05:56:04.266Z,10.9
2017-09-03T05:57:06.492Z,11.1
2017-09-03T05:58:08.670Z,11.2
2017-09-03T05:59:10.745Z,11.1
2017-09-03T06:00:12.866Z,11.1
2017-09-03T06:01:15.276Z,11.2
2017-09-03T06:02:17.418Z,11.1
2017-09-03T06:03:19.493Z,11.4
2017-09-03T06:04:21.546Z,11.3
2017-09-03T06:05:23.790Z,11.7
2017-09-03T06:06:26.263Z,11.6
2017-09-03T06:07:28.413Z,11.9
2017-09-03T06:08:30.570Z,12.2
2017-09-03T06:09:32.747Z,12.3
2017-09-03T06:10:34.894Z,12.4
2017-09-03T06:11:37.349Z,12.6
2017-09-03T06:12:39.469Z,12.7
2017-09-03T06:13:41.582Z,12.4
2017-09-03T06:14:43.683Z,12
2017-09-03T06:15:45.837Z,11.8
2017-09-03T06:16:48.261Z,11.9
2017-09-03T06:17:50.350Z,12.5
2017-09-03T06:18:52.460Z,12.8
2017-09-03T06:19:55.558Z,12.8
2017-09-03T06:20:57.667Z,12.9
2017-09-03T06:22:00.280Z,12.9
2017-09-03T06:23:02.430Z,12.8
2017-09-03T06:24:04.618Z,13
2017-09-03T06:25:06.710Z,13.3
2017-09-03T06:26:08.824Z,13.6
2017-09-03T06:27:11.259Z,13.6
2017-09-03T06:28:13.382Z,14
2017-09-03T06:29:15.440Z,14.1
2017-09-03T06:30:17.476Z,14.1
2017-09-03T06:31:19.588Z,14.2
2017-09-03T06:32:22.128Z,14.4
2017-09-03T06:33:24.252Z,14.1
2017-09-03T06:34:26.366Z,13.8
2017-09-03T06:35:28.503Z,13.8
2017-09-03T06:36:30.653Z,14
2017-09-03T06:37:33.057Z,13.8
2017-09-03T06:38:35.176Z,13.8
2017-09-03T06:39:37.277Z,14.1
2017-09-03T06:40:39.416Z,14.2
2017-09-03T06:41:41.492Z,14.2
2017-09-03T06:42:44.004Z,14.4
2017-09-03T06:43:46.164Z,14.3
2017-09-03T06:44:48.407Z,14.3
2017-09-03T06:45:50.436Z,14.4
2017-09-03T06:46:52.627Z,14.2
2017-09-03T06:47:55.048Z,13.8
2017-09-03T06:48:57.187Z,13.5
2017-09-03T06:49:59.346Z,13.1
2017-09-03T06:51:01.492Z,12.9
2017-09-03T06:52:03.585Z,12.9
2017-09-03T06:53:06.045Z,13.2
2017-09-03T06:54:08.174Z,13
2017-09-03T06:55:10.269Z,13.2
2017-09-03T06:56:12.691Z,13.7
2017-09-03T06:57:14.970Z,13.8
2017-09-03T06:58:17.421Z,13.9
2017-09-03T06:59:19.623Z,14
2017-09-03T07:00:21.799Z,14.2
2017-09-03T07:01:23.882Z,14.2
2017-09-03T07:02:26.061Z,14.1
2017-09-03T07:03:28.508Z,13.6
2017-09-03T07:04:30.577Z,13.8
2017-09-03T07:05:32.620Z,13.5
2017-09-03T07:06:34.772Z,13.6
2017-09-03T07:07:36.958Z,13.6
2017-09-03T07:08:39.472Z,13.8
2017-09-03T07:09:41.561Z,13.7
2017-09-03T07:10:43.680Z,14
2017-09-03T07:11:45.833Z,13.7
2017-09-03T07:12:47.952Z,14.2
2017-09-03T07:13:50.462Z,14.2
2017-09-03T07:14:52.623Z,14.6
2017-09-03T07:15:54.765Z,14.5
2017-09-03T07:16:56.877Z,14.4
2017-09-03T07:17:58.918Z,14.6
2017-09-03T07:19:01.360Z,14.6
2017-09-03T07:20:03.465Z,14.4
2017-09-03T07:21:05.641Z,14.5
2017-09-03T07:22:07.741Z,14.6
2017-09-03T07:23:09.843Z,15
2017-09-03T07:24:12.368Z,15
2017-09-03T07:25:14.505Z,15.3
2017-09-03T07:26:16.628Z,15.1
2017-09-03T07:27:18.733Z,15.3
2017-09-03T07:28:20.890Z,15.8
2017-09-03T07:29:23.304Z,15.8
2017-09-03T07:30:25.412Z,15.6
2017-09-03T07:31:27.553Z,15.4
2017-09-03T07:32:29.711Z,15.3
2017-09-03T07:33:31.850Z,15.6
2017-09-03T07:34:34.333Z,16.4
2017-09-03T07:35:36.426Z,16.8
2017-09-03T07:36:38.510Z,16.3
2017-09-03T07:37:40.613Z,15.9
2017-09-03T07:38:42.745Z,16
2017-09-03T07:39:45.240Z,16.1
2017-09-03T07:40:47.268Z,16.6
2017-09-03T07:41:49.370Z,17.4
2017-09-03T07:42:51.593Z,18.1
2017-09-03T07:43:53.819Z,18.1
2017-09-03T07:44:56.310Z,17.8
2017-09-03T07:45:58.420Z,17.5
2017-09-03T07:47:00.576Z,17.2
2017-09-03T07:48:02.971Z,17.5
2017-09-03T07:49:05.071Z,17.4
2017-09-03T07:50:07.464Z,17.7
2017-09-03T07:51:09.544Z,17.5
2017-09-03T07:52:11.729Z,17.5
2017-09-03T07:53:13.813Z,18.3
2017-09-03T07:54:16.071Z,18.3
2017-09-03T07:55:18.624Z,18.6
2017-09-03T07:56:20.777Z,18.5
2017-09-03T07:57:22.916Z,18.5
2017-09-03T07:58:25.034Z,18.4
2017-09-03T07:59:27.256Z,18.4
2017-09-03T08:00:29.801Z,18.4
2017-09-03T08:01:31.844Z,18.1
2017-09-03T08:02:33.972Z,18.2
2017-09-03T08:03:36.150Z,18.7
2017-09-03T08:04:38.232Z,19.1
2017-09-03T08:05:40.664Z,19.1
2017-09-03T08:06:42.805Z,19.1
2017-09-03T08:07:45.024Z,18.6
2017-09-03T08:08:47.248Z,18.9
2017-09-03T08:09:49.463Z,18.4
2017-09-03T08:10:51.988Z,18.6
2017-09-03T08:11:54.304Z,18.8
2017-09-03T08:12:56.602Z,19.6
2017-09-03T08:13:58.721Z,19.4
2017-09-03T08:15:00.939Z,18.8
2017-09-03T08:16:03.492Z,19.1
2017-09-03T08:17:05.618Z,19
2017-09-03T08:18:07.753Z,19.3
2017-09-03T08:19:09.869Z,19.3
2017-09-03T08:20:12.094Z,19.7
2017-09-03T08:21:14.607Z,19.4
2017-09-03T08:22:16.737Z,19.5
2017-09-03T08:23:18.732Z,19.4
2017-09-03T08:24:20.903Z,19.9
2017-09-03T08:25:22.971Z,19.6
2017-09-03T08:26:25.542Z,19.5
2017-09-03T08:27:27.684Z,19.5
2017-09-03T08:28:29.745Z,19.8
2017-09-03T08:29:32.069Z,20.5
2017-09-03T08:30:34.204Z,19.9
2017-09-03T08:31:38.196Z,20.5
2017-09-03T08:32:40.318Z,21.4
2017-09-03T08:33:42.437Z,21.8
2017-09-03T08:34:44.540Z,21.6
2017-09-03T08:35:46.692Z,20.4
2017-09-03T08:36:49.282Z,20
2017-09-03T08:37:51.462Z,20.4
2017-09-03T08:38:53.647Z,19.9
2017-09-03T08:39:55.744Z,19.8
2017-09-03T08:40:57.882Z,20.1
2017-09-03T08:42:00.656Z,19.9
2017-09-03T08:43:02.767Z,21
2017-09-03T08:44:04.858Z,21.3
2017-09-03T08:45:06.982Z,21.1
2017-09-03T08:46:09.086Z,21.9
2017-09-03T08:47:11.588Z,20.9
2017-09-03T08:48:13.777Z,21.6
2017-09-03T08:49:15.922Z,21.7
2017-09-03T08:50:18.106Z,21.5
2017-09-03T08:51:20.332Z,21.4
2017-09-03T08:52:22.867Z,21.9
2017-09-03T08:53:25.008Z,22.1
2017-09-03T08:54:27.153Z,23.8
2017-09-03T08:55:29.341Z,24
2017-09-03T08:56:31.524Z,23.4
2017-09-03T08:57:33.988Z,23.6
2017-09-03T08:58:36.129Z,24.4
2017-09-03T08:59:38.228Z,23.9
2017-09-03T09:00:40.357Z,23.6
2017-09-03T09:01:42.538Z,23
2017-09-03T09:02:44.981Z,23.5
2017-09-03T09:03:47.137Z,24.1
2017-09-03T09:04:49.293Z,25.2
2017-09-03T09:05:51.604Z,24.1
2017-09-03T09:06:53.663Z,23.9
2017-09-03T09:07:56.341Z,25.4
2017-09-03T09:08:58.562Z,24.9
2017-09-03T09:10:01.212Z,23.7
2017-09-03T09:11:03.361Z,24.5
2017-09-03T09:12:05.522Z,25.5
2017-09-03T09:13:08.008Z,24.2
2017-09-03T09:14:10.208Z,23.9
2017-09-03T09:15:12.436Z,23.9
2017-09-03T09:16:14.718Z,25.4
2017-09-03T09:17:16.961Z,24.2
2017-09-03T09:18:19.384Z,24.7
2017-09-03T09:19:21.490Z,24.3
2017-09-03T09:20:23.707Z,24.5
2017-09-03T09:21:25.790Z,25.1
2017-09-03T09:22:28.006Z,25.5
2017-09-03T09:23:30.462Z,24.6
2017-09-03T09:24:32.616Z,24.6
2017-09-03T09:25:34.729Z,25
2017-09-03T09:26:36.887Z,24.5
2017-09-03T09:27:39.095Z,24.8
2017-09-03T09:28:41.610Z,25.1
2017-09-03T09:29:43.745Z,24.9
2017-09-03T09:30:45.875Z,25.1
2017-09-03T09:31:48.085Z,24.3
2017-09-03T09:32:50.245Z,25.1
2017-09-03T09:33:52.633Z,26.7
2017-09-03T09:34:54.822Z,26.2
2017-09-03T09:35:56.975Z,26.7
2017-09-03T09:36:59.264Z,26.7
2017-09-03T09:38:01.651Z,27.1
2017-09-03T09:39:04.141Z,25.7
2017-09-03T09:40:06.252Z,26
2017-09-03T09:41:08.449Z,27.3
2017-09-03T09:42:10.575Z,27.1
2017-09-03T09:43:12.742Z,27.3
2017-09-03T09:44:15.130Z,28.1
2017-09-03T09:45:17.290Z,28.7
2017-09-03T09:46:19.448Z,28.2
2017-09-03T09:47:21.579Z,27.1
2017-09-03T09:48:23.701Z,26.2
2017-09-03T09:49:27.550Z,26
2017-09-03T09:50:29.705Z,26.3
2017-09-03T09:51:31.756Z,27.7
2017-09-03T09:52:33.919Z,28
2017-09-03T09:53:36.033Z,27.2
2017-09-03T09:54:38.554Z,26.2
2017-09-03T09:55:40.650Z,26.3
2017-09-03T09:56:42.794Z,25.4
2017-09-03T09:57:44.893Z,26.2
2017-09-03T09:58:46.989Z,26.4
2017-09-03T09:59:49.359Z,26.4
2017-09-03T10:00:51.467Z,26.1
2017-09-03T10:01:53.604Z,27.5
2017-09-03T10:02:55.687Z,27
2017-09-03T10:03:57.923Z,26.9
2017-09-03T10:05:00.245Z,27.4
2017-09-03T10:06:02.479Z,28
2017-09-03T10:07:04.604Z,27.1
2017-09-03T10:08:06.713Z,28.3
2017-09-03T10:09:08.807Z,28.1
2017-09-03T10:10:11.311Z,27.6
2017-09-03T10:11:13.393Z,29.4
2017-09-03T10:12:15.507Z,28.7
2017-09-03T10:13:17.601Z,28.7
2017-09-03T10:14:19.731Z,29.2
2017-09-03T10:15:22.358Z,29
2017-09-03T10:16:24.489Z,26.3
2017-09-03T10:17:26.531Z,25.3
2017-09-03T10:18:28.668Z,24.9
2017-09-03T10:19:30.742Z,24.9
2017-09-03T10:20:33.313Z,24.2
2017-09-03T10:21:35.388Z,24.8
2017-09-03T10:22:37.508Z,24.5
2017-09-03T10:23:39.565Z,23.7
2017-09-03T10:24:41.704Z,24.1
2017-09-03T10:25:45.694Z,23.5
2017-09-03T10:26:47.824Z,23.8
2017-09-03T10:27:49.964Z,24.1
2017-09-03T10:28:52.081Z,23.8
2017-09-03T10:29:54.232Z,23
2017-09-03T10:30:56.785Z,22.1
2017-09-03T10:31:58.911Z,22.6
2017-09-03T10:33:00.985Z,22.5
2017-09-03T10:34:03.138Z,22.9
2017-09-03T10:35:05.265Z,23
2017-09-03T10:36:07.786Z,23
2017-09-03T10:37:09.927Z,23.1
2017-09-03T10:38:12.097Z,22.8
2017-09-03T10:39:14.343Z,23.5
2017-09-03T10:40:16.498Z,23.5
2017-09-03T10:41:19.006Z,22.9
2017-09-03T10:42:21.111Z,23
2017-09-03T10:43:23.247Z,23.5
2017-09-03T10:44:25.375Z,23.5
2017-09-03T10:45:27.484Z,23.5
2017-09-03T10:46:30.320Z,23.6
2017-09-03T10:47:32.421Z,23.8
2017-09-03T10:48:34.539Z,23.5
2017-09-03T10:49:36.705Z,23.1
2017-09-03T10:50:38.825Z,23.3
2017-09-03T10:51:41.257Z,23
2017-09-03T10:52:43.399Z,23.3
2017-09-03T10:53:45.497Z,23.6
2017-09-03T10:54:47.682Z,23.6
2017-09-03T10:55:49.837Z,23.1
2017-09-03T10:56:52.257Z,23.5
2017-09-03T10:57:54.350Z,23.5
2017-09-03T10:58:56.469Z,23.4
2017-09-03T10:59:58.584Z,23.5
2017-09-03T11:01:00.701Z,23.5
2017-09-03T11:02:03.155Z,23.6
2017-09-03T11:03:05.287Z,23.3
2017-09-03T11:04:07.396Z,23.7
2017-09-03T11:05:09.562Z,23.1
2017-09-03T11:06:11.773Z,23.3
2017-09-03T11:07:14.162Z,23.3
2017-09-03T11:08:16.254Z,22.9
2017-09-03T11:09:18.392Z,23.2
2017-09-03T11:10:20.521Z,23.7
2017-09-03T11:11:22.828Z,23.6
2017-09-03T11:12:25.392Z,23.7
2017-09-03T11:13:27.527Z,23.1
2017-09-03T11:14:29.637Z,22.9
2017-09-03T11:15:31.751Z,23
2017-09-03T11:16:33.853Z,23.1
2017-09-03T11:17:36.263Z,23.2
2017-09-03T11:18:38.377Z,23.1
2017-09-03T11:19:40.563Z,22.1
2017-09-03T11:20:42.710Z,22.2
2017-09-03T11:21:44.889Z,22.4
2017-09-03T11:22:47.497Z,22.4
2017-09-03T11:23:49.624Z,22.8
2017-09-03T11:24:51.723Z,23.3
2017-09-03T11:25:53.906Z,23.8
2017-09-03T11:26:56.061Z,23.5
2017-09-03T11:27:58.514Z,23.4
2017-09-03T11:29:00.653Z,21.8
2017-09-03T11:30:02.726Z,22.6
2017-09-03T11:31:04.925Z,23
2017-09-03T11:32:07.055Z,22.3
2017-09-03T11:33:09.525Z,22.4
2017-09-03T11:34:11.717Z,23.3
2017-09-03T11:35:13.839Z,23.5
2017-09-03T11:36:15.917Z,23.9
2017-09-03T11:37:18.017Z,23.5
2017-09-03T11:38:20.521Z,23.4
2017-09-03T11:39:22.645Z,23.7
2017-09-03T11:40:24.759Z,23.3
2017-09-03T11:41:26.854Z,23.5
2017-09-03T11:42:29.052Z,23.5
2017-09-03T11:43:31.510Z,23.1
2017-09-03T11:44:33.609Z,23.9
2017-09-03T11:45:35.782Z,24.8
2017-09-03T11:46:37.953Z,24.6
2017-09-03T11:47:40.132Z,23.7
2017-09-03T11:48:42.664Z,23.7
2017-09-03T11:49:44.743Z,24.1
2017-09-03T11:50:46.837Z,24.1
2017-09-03T11:51:48.905Z,24
2017-09-03T11:52:50.953Z,23.2
2017-09-03T11:53:53.388Z,23.8
2017-09-03T11:54:55.545Z,24.5
2017-09-03T11:55:57.709Z,25.1
2017-09-03T11:56:59.814Z,24.8
2017-09-03T11:58:01.940Z,24.2
2017-09-03T11:59:04.452Z,23.3
2017-09-03T12:00:06.590Z,22.6
2017-09-03T12:01:08.746Z,23.1
2017-09-03T12:02:10.920Z,22.9
2017-09-03T12:03:13.116Z,22.7
2017-09-03T12:04:15.535Z,22
2017-09-03T12:05:17.654Z,22.5
2017-09-03T12:06:19.797Z,22.9
2017-09-03T12:07:21.981Z,22.5
2017-09-03T12:08:24.094Z,22.1
2017-09-03T12:09:26.501Z,22.2
2017-09-03T12:10:28.639Z,22.4
2017-09-03T12:11:30.817Z,21.7
2017-09-03T12:12:32.960Z,22.3
2017-09-03T12:13:35.279Z,22.7
2017-09-03T12:14:37.828Z,22.9
2017-09-03T12:15:40.003Z,22.5
2017-09-03T12:16:42.164Z,23.3
2017-09-03T12:17:44.349Z,23.6
2017-09-03T12:18:46.485Z,23.5
2017-09-03T12:19:48.961Z,23
2017-09-03T12:20:51.097Z,23.1
2017-09-03T12:21:53.246Z,22.6
2017-09-03T12:22:55.489Z,22.8
2017-09-03T12:23:57.739Z,23
2017-09-03T12:25:00.144Z,23
2017-09-03T12:26:02.261Z,22.5
2017-09-03T12:27:04.361Z,22.3
2017-09-03T12:28:06.491Z,22.4
2017-09-03T12:29:08.626Z,23
2017-09-03T12:30:11.117Z,22.7
2017-09-03T12:31:13.278Z,22.4
2017-09-03T12:32:15.468Z,21.9
2017-09-03T12:33:17.666Z,22
2017-09-03T12:34:19.813Z,21.9
2017-09-03T12:35:22.185Z,22.6
2017-09-03T12:36:24.463Z,22.7
2017-09-03T12:37:26.545Z,22.1
2017-09-03T12:38:28.709Z,22.1
2017-09-03T12:39:30.844Z,21.5
2017-09-03T12:40:33.194Z,21.5
2017-09-03T12:41:35.369Z,21.3
2017-09-03T12:42:37.499Z,21.4
2017-09-03T12:43:39.603Z,21.5
2017-09-03T12:44:41.746Z,22
2017-09-03T12:45:44.208Z,22.6
2017-09-03T12:46:46.325Z,23
2017-09-03T12:47:48.589Z,22.8
2017-09-03T12:48:50.763Z,22.6
2017-09-03T12:49:52.882Z,22.8
2017-09-03T12:50:55.339Z,22.1
2017-09-03T12:51:57.445Z,22.1
2017-09-03T12:52:59.662Z,21.7
2017-09-03T12:54:01.919Z,22
2017-09-03T12:55:04.159Z,22.5
2017-09-03T12:56:07.356Z,22.6
2017-09-03T12:57:10.554Z,23.3
2017-09-03T12:58:12.874Z,22.9
2017-09-03T12:59:15.094Z,22.5
2017-09-03T13:00:17.231Z,21.7
2017-09-03T13:01:19.632Z,22.4
2017-09-03T13:02:21.769Z,22.6
2017-09-03T13:03:23.874Z,22.4
2017-09-03T13:04:25.996Z,22.8
2017-09-03T13:05:28.120Z,23.3
2017-09-03T13:06:30.511Z,23.5
2017-09-03T13:07:32.570Z,23.6
2017-09-03T13:08:34.754Z,23.5
2017-09-03T13:09:36.926Z,23.3
2017-09-03T13:10:39.018Z,23.1
2017-09-03T13:11:41.490Z,23
2017-09-03T13:12:43.588Z,23.3
2017-09-03T13:13:45.709Z,23
2017-09-03T13:14:47.840Z,23
2017-09-03T13:15:49.944Z,22.8
2017-09-03T13:16:52.326Z,22.7
2017-09-03T13:17:54.408Z,22.4
2017-09-03T13:18:56.609Z,22.3
2017-09-03T13:19:58.676Z,22.3
2017-09-03T13:21:00.837Z,22.2
2017-09-03T13:22:03.224Z,23
2017-09-03T13:23:05.508Z,23
2017-09-03T13:24:07.715Z,23
2017-09-03T13:25:09.806Z,23.1
2017-09-03T13:26:11.978Z,22.8
2017-09-03T13:27:14.501Z,22.9
2017-09-03T13:28:16.595Z,23.4
2017-09-03T13:29:18.703Z,23.2
2017-09-03T13:30:20.771Z,22.8
2017-09-03T13:31:22.898Z,22.9
2017-09-03T13:32:25.210Z,22.7
2017-09-03T13:33:27.380Z,23.2
2017-09-03T13:34:29.763Z,23.5
2017-09-03T13:35:31.846Z,23.7
2017-09-03T13:36:34.035Z,23.5
2017-09-03T13:37:36.460Z,23.3
2017-09-03T13:38:38.592Z,23.2
2017-09-03T13:39:40.736Z,22.9
2017-09-03T13:40:42.776Z,22.8
2017-09-03T13:41:44.883Z,23
2017-09-03T13:42:47.299Z,23.4
2017-09-03T13:43:49.495Z,23.3
2017-09-03T13:44:51.637Z,23.3
2017-09-03T13:45:53.804Z,23
2017-09-03T13:46:55.897Z,22.7
2017-09-03T13:47:58.320Z,22.7
2017-09-03T13:49:00.467Z,22.5
2017-09-03T13:50:02.597Z,22.7
2017-09-03T13:51:04.736Z,22.7
2017-09-03T13:52:06.848Z,22.4
2017-09-03T13:53:09.345Z,22.6
2017-09-03T13:54:11.483Z,22.7
2017-09-03T13:55:13.604Z,22.6
2017-09-03T13:56:15.784Z,22.9
2017-09-03T13:57:17.829Z,22.4
2017-09-03T13:58:20.180Z,22.8
2017-09-03T13:59:22.289Z,22.9
2017-09-03T14:00:24.475Z,22.4
2017-09-03T14:01:26.594Z,22
2017-09-03T14:02:28.687Z,22.3